sensor_id;sensor_type;location;lat;lon;timestamp;P1;durP1;ratioP1;P2;durP2;ratioP2
13849;SDS011;6995;52.618;13.488;2022-11-03T00:01:51;29.43;;;27.10;;
13849;SDS011;6995;52.618;13.488;2022-11-03T00:04:18;30.63;;;28.60;;
13849;SDS011;6995;52.618;13.488;2022-11-03T00:06:45;32.23;;;29.83;;
13849;SDS011;6995;52.618;13.488;2022-11-03T00:09:13;31.60;;;29.27;;
13849;SDS011;6995;52.618;13.488;2022-11-03T00:11:41;29.03;;;26.90;;
13849;SDS011;6995;52.618;13.488;2022-11-03T00:14:07;28.53;;;26.50;;
13849;SDS011;6995;52.618;13.488;2022-11-03T00:16:34;31.43;;;28.60;;
13849;SDS011;6995;52.618;13.488;2022-11-03T00:19:00;31.90;;;29.53;;
13849;SDS011;6995;52.618;13.488;2022-11-03T00:21:26;31.07;;;28.67;;
13849;SDS011;6995;52.618;13.488;2022-11-03T00:23:52;29.63;;;27.63;;
13849;SDS011;6995;52.618;13.488;2022-11-03T00:26:19;30.90;;;28.80;;
13849;SDS011;6995;52.618;13.488;2022-11-03T00:28:55;28.23;;;26.33;;
13849;SDS011;6995;52.618;13.488;2022-11-03T00:31:26;27.73;;;25.60;;
13849;SDS011;6995;52.618;13.488;2022-11-03T00:33:53;27.57;;;25.17;;
13849;SDS011;6995;52.618;13.488;2022-11-03T00:38:51;25.50;;;23.73;;
13849;SDS011;6995;52.618;13.488;2022-11-03T00:41:18;27.80;;;25.83;;
13849;SDS011;6995;52.618;13.488;2022-11-03T00:43:45;30.27;;;28.17;;
13849;SDS011;6995;52.618;13.488;2022-11-03T00:46:12;27.37;;;25.17;;
13849;SDS011;6995;52.618;13.488;2022-11-03T00:48:38;29.03;;;26.83;;
13849;SDS011;6995;52.618;13.488;2022-11-03T00:51:46;27.50;;;25.50;;
13849;SDS011;6995;52.618;13.488;2022-11-03T00:53:59;29.03;;;27.13;;
13849;SDS011;6995;52.618;13.488;2022-11-03T00:56:26;28.97;;;26.77;;
13849;SDS011;6995;52.618;13.488;2022-11-03T00:58:55;26.67;;;24.83;;
13849;SDS011;6995;52.618;13.488;2022-11-03T01:01:23;30.03;;;27.50;;
13849;SDS011;6995;52.618;13.488;2022-11-03T01:03:51;26.70;;;24.87;;
13849;SDS011;6995;52.618;13.488;2022-11-03T01:06:37;28.90;;;26.70;;
13849;SDS011;6995;52.618;13.488;2022-11-03T01:09:14;30.00;;;27.47;;
13849;SDS011;6995;52.618;13.488;2022-11-03T01:12:06;28.77;;;26.37;;
13849;SDS011;6995;52.618;13.488;2022-11-03T01:14:34;29.23;;;27.03;;
13849;SDS011;6995;52.618;13.488;2022-11-03T01:17:10;29.47;;;27.43;;
13849;SDS011;6995;52.618;13.488;2022-11-03T01:19:56;27.47;;;25.63;;
13849;SDS011;6995;52.618;13.488;2022-11-03T01:22:22;27.30;;;25.27;;
13849;SDS011;6995;52.618;13.488;2022-11-03T01:24:48;28.13;;;26.10;;
13849;SDS011;6995;52.618;13.488;2022-11-03T01:27:16;30.10;;;28.10;;
13849;SDS011;6995;52.618;13.488;2022-11-03T01:29:43;31.00;;;29.13;;
13849;SDS011;6995;52.618;13.488;2022-11-03T01:32:09;27.40;;;25.33;;
13849;SDS011;6995;52.618;13.488;2022-11-03T01:34:36;28.23;;;26.37;;
13849;SDS011;6995;52.618;13.488;2022-11-03T01:37:02;32.80;;;30.73;;
13849;SDS011;6995;52.618;13.488;2022-11-03T01:39:28;27.23;;;25.37;;
13849;SDS011;6995;52.618;13.488;2022-11-03T01:41:53;27.57;;;25.63;;
13849;SDS011;6995;52.618;13.488;2022-11-03T01:44:24;27.93;;;26.13;;
13849;SDS011;6995;52.618;13.488;2022-11-03T01:54:33;28.10;;;26.43;;
13849;SDS011;6995;52.618;13.488;2022-11-03T01:57:03;29.83;;;28.03;;
13849;SDS011;6995;52.618;13.488;2022-11-03T01:59:34;28.93;;;27.03;;
13849;SDS011;6995;52.618;13.488;2022-11-03T02:02:00;29.20;;;27.43;;
13849;SDS011;6995;52.618;13.488;2022-11-03T02:04:28;32.23;;;30.33;;
13849;SDS011;6995;52.618;13.488;2022-11-03T02:06:59;30.27;;;28.27;;
13849;SDS011;6995;52.618;13.488;2022-11-03T02:09:46;27.60;;;25.50;;
13849;SDS011;6995;52.618;13.488;2022-11-03T02:12:11;31.13;;;29.07;;
13849;SDS011;6995;52.618;13.488;2022-11-03T02:14:57;28.37;;;26.57;;
13849;SDS011;6995;52.618;13.488;2022-11-03T02:17:26;28.87;;;26.50;;
13849;SDS011;6995;52.618;13.488;2022-11-03T02:19:56;30.77;;;27.80;;
13849;SDS011;6995;52.618;13.488;2022-11-03T02:27:59;25.53;;;23.80;;
13849;SDS011;6995;52.618;13.488;2022-11-03T02:30:26;28.07;;;26.13;;
13849;SDS011;6995;52.618;13.488;2022-11-03T02:33:45;28.77;;;26.53;;
13849;SDS011;6995;52.618;13.488;2022-11-03T02:35:56;28.97;;;26.40;;
13849;SDS011;6995;52.618;13.488;2022-11-03T02:38:36;27.20;;;25.20;;
13849;SDS011;6995;52.618;13.488;2022-11-03T02:41:09;27.50;;;25.53;;
13849;SDS011;6995;52.618;13.488;2022-11-03T02:43:37;29.47;;;26.43;;
13849;SDS011;6995;52.618;13.488;2022-11-03T02:46:04;28.00;;;26.20;;
13849;SDS011;6995;52.618;13.488;2022-11-03T02:48:30;28.47;;;26.70;;
13849;SDS011;6995;52.618;13.488;2022-11-03T02:50:56;27.30;;;25.50;;
13849;SDS011;6995;52.618;13.488;2022-11-03T02:53:22;29.83;;;27.53;;
13849;SDS011;6995;52.618;13.488;2022-11-03T02:56:00;29.80;;;27.60;;
13849;SDS011;6995;52.618;13.488;2022-11-03T02:58:38;29.87;;;27.47;;
13849;SDS011;6995;52.618;13.488;2022-11-03T03:03:51;27.73;;;25.63;;
13849;SDS011;6995;52.618;13.488;2022-11-03T03:06:22;28.30;;;26.23;;
13849;SDS011;6995;52.618;13.488;2022-11-03T03:09:02;28.70;;;26.80;;
13849;SDS011;6995;52.618;13.488;2022-11-03T03:11:31;32.43;;;30.17;;
13849;SDS011;6995;52.618;13.488;2022-11-03T03:14:13;30.27;;;27.90;;
13849;SDS011;6995;52.618;13.488;2022-11-03T03:16:53;28.10;;;26.13;;
13849;SDS011;6995;52.618;13.488;2022-11-03T03:22:24;31.47;;;29.13;;
13849;SDS011;6995;52.618;13.488;2022-11-03T03:24:58;28.97;;;26.30;;
13849;SDS011;6995;52.618;13.488;2022-11-03T03:27:31;30.90;;;28.67;;
13849;SDS011;6995;52.618;13.488;2022-11-03T03:30:03;33.80;;;31.50;;
13849;SDS011;6995;52.618;13.488;2022-11-03T03:32:32;30.60;;;28.00;;
13849;SDS011;6995;52.618;13.488;2022-11-03T03:35:02;31.57;;;29.07;;
13849;SDS011;6995;52.618;13.488;2022-11-03T03:37:36;28.77;;;26.67;;
13849;SDS011;6995;52.618;13.488;2022-11-03T03:40:07;28.37;;;26.53;;
13849;SDS011;6995;52.618;13.488;2022-11-03T03:42:35;33.07;;;29.80;;
13849;SDS011;6995;52.618;13.488;2022-11-03T03:45:04;31.80;;;29.70;;
13849;SDS011;6995;52.618;13.488;2022-11-03T03:47:33;32.80;;;30.47;;
13849;SDS011;6995;52.618;13.488;2022-11-03T03:49:59;29.03;;;26.83;;
13849;SDS011;6995;52.618;13.488;2022-11-03T03:52:25;30.50;;;28.63;;
13849;SDS011;6995;52.618;13.488;2022-11-03T03:54:52;28.37;;;26.43;;
13849;SDS011;6995;52.618;13.488;2022-11-03T03:57:20;32.33;;;29.80;;
13849;SDS011;6995;52.618;13.488;2022-11-03T03:59:48;29.43;;;27.27;;
13849;SDS011;6995;52.618;13.488;2022-11-03T04:02:15;31.30;;;28.67;;
13849;SDS011;6995;52.618;13.488;2022-11-03T04:04:41;31.13;;;29.03;;
13849;SDS011;6995;52.618;13.488;2022-11-03T04:07:06;29.53;;;27.27;;
13849;SDS011;6995;52.618;13.488;2022-11-03T04:09:51;28.93;;;26.97;;
13849;SDS011;6995;52.618;13.488;2022-11-03T04:12:17;31.93;;;29.13;;
13849;SDS011;6995;52.618;13.488;2022-11-03T04:15:02;30.47;;;28.23;;
13849;SDS011;6995;52.618;13.488;2022-11-03T04:17:46;34.43;;;31.57;;
13849;SDS011;6995;52.618;13.488;2022-11-03T04:20:32;31.17;;;28.73;;
13849;SDS011;6995;52.618;13.488;2022-11-03T04:23:16;28.13;;;26.30;;
13849;SDS011;6995;52.618;13.488;2022-11-03T04:25:46;30.13;;;27.93;;
13849;SDS011;6995;52.618;13.488;2022-11-03T04:28:14;33.80;;;31.57;;
13849;SDS011;6995;52.618;13.488;2022-11-03T04:30:40;37.90;;;34.90;;
13849;SDS011;6995;52.618;13.488;2022-11-03T04:33:11;33.73;;;31.33;;
13849;SDS011;6995;52.618;13.488;2022-11-03T04:35:41;30.23;;;28.10;;
13849;SDS011;6995;52.618;13.488;2022-11-03T04:40:51;31.60;;;29.40;;
13849;SDS011;6995;52.618;13.488;2022-11-03T04:43:20;33.10;;;30.77;;
13849;SDS011;6995;52.618;13.488;2022-11-03T04:45:47;32.70;;;30.30;;
13849;SDS011;6995;52.618;13.488;2022-11-03T04:48:14;30.00;;;28.00;;
13849;SDS011;6995;52.618;13.488;2022-11-03T04:50:40;31.07;;;28.43;;
13849;SDS011;6995;52.618;13.488;2022-11-03T04:53:11;29.60;;;27.90;;
13849;SDS011;6995;52.618;13.488;2022-11-03T04:55:39;30.57;;;28.77;;
13849;SDS011;6995;52.618;13.488;2022-11-03T04:58:10;30.17;;;28.07;;
13849;SDS011;6995;52.618;13.488;2022-11-03T05:00:41;30.33;;;27.73;;
13849;SDS011;6995;52.618;13.488;2022-11-03T05:03:07;29.07;;;27.33;;
13849;SDS011;6995;52.618;13.488;2022-11-03T05:05:44;28.87;;;26.33;;
13849;SDS011;6995;52.618;13.488;2022-11-03T05:08:10;29.17;;;27.30;;
13849;SDS011;6995;52.618;13.488;2022-11-03T05:10:36;30.17;;;28.20;;
13849;SDS011;6995;52.618;13.488;2022-11-03T05:13:02;27.37;;;25.60;;
13849;SDS011;6995;52.618;13.488;2022-11-03T05:15:36;28.07;;;26.17;;
13849;SDS011;6995;52.618;13.488;2022-11-03T05:20:53;30.60;;;28.43;;
13849;SDS011;6995;52.618;13.488;2022-11-03T05:23:23;30.57;;;28.73;;
13849;SDS011;6995;52.618;13.488;2022-11-03T05:25:55;29.83;;;27.90;;
13849;SDS011;6995;52.618;13.488;2022-11-03T05:30:50;28.03;;;26.03;;
13849;SDS011;6995;52.618;13.488;2022-11-03T05:33:21;27.73;;;25.57;;
13849;SDS011;6995;52.618;13.488;2022-11-03T05:35:47;29.03;;;26.80;;
13849;SDS011;6995;52.618;13.488;2022-11-03T05:38:13;30.93;;;28.77;;
13849;SDS011;6995;52.618;13.488;2022-11-03T05:40:41;26.70;;;24.47;;
13849;SDS011;6995;52.618;13.488;2022-11-03T05:43:07;30.10;;;28.10;;
13849;SDS011;6995;52.618;13.488;2022-11-03T05:45:37;29.13;;;27.03;;
13849;SDS011;6995;52.618;13.488;2022-11-03T05:48:14;28.43;;;26.57;;
13849;SDS011;6995;52.618;13.488;2022-11-03T05:51:09;29.57;;;27.37;;
13849;SDS011;6995;52.618;13.488;2022-11-03T05:53:43;25.30;;;23.60;;
13849;SDS011;6995;52.618;13.488;2022-11-03T05:56:15;27.23;;;25.47;;
13849;SDS011;6995;52.618;13.488;2022-11-03T05:58:46;28.57;;;26.37;;
13849;SDS011;6995;52.618;13.488;2022-11-03T06:03:43;27.17;;;25.13;;
13849;SDS011;6995;52.618;13.488;2022-11-03T06:06:14;26.77;;;24.87;;
13849;SDS011;6995;52.618;13.488;2022-11-03T06:08:44;30.73;;;28.63;;
13849;SDS011;6995;52.618;13.488;2022-11-03T06:13:59;30.20;;;28.10;;
13849;SDS011;6995;52.618;13.488;2022-11-03T06:16:31;26.93;;;25.10;;
13849;SDS011;6995;52.618;13.488;2022-11-03T06:21:54;30.40;;;28.00;;
13849;SDS011;6995;52.618;13.488;2022-11-03T06:24:30;28.47;;;26.20;;
13849;SDS011;6995;52.618;13.488;2022-11-03T06:26:57;29.50;;;27.33;;
13849;SDS011;6995;52.618;13.488;2022-11-03T06:29:23;28.00;;;25.97;;
13849;SDS011;6995;52.618;13.488;2022-11-03T06:31:50;28.00;;;26.13;;
13849;SDS011;6995;52.618;13.488;2022-11-03T06:34:30;29.67;;;27.47;;
13849;SDS011;6995;52.618;13.488;2022-11-03T06:39:46;31.20;;;29.17;;
13849;SDS011;6995;52.618;13.488;2022-11-03T06:42:15;31.23;;;28.93;;
13849;SDS011;6995;52.618;13.488;2022-11-03T06:44:45;35.07;;;32.33;;
13849;SDS011;6995;52.618;13.488;2022-11-03T06:47:15;31.93;;;30.13;;
13849;SDS011;6995;52.618;13.488;2022-11-03T06:49:52;31.60;;;29.43;;
13849;SDS011;6995;52.618;13.488;2022-11-03T06:52:33;35.20;;;33.03;;
13849;SDS011;6995;52.618;13.488;2022-11-03T06:57:32;33.30;;;31.27;;
13849;SDS011;6995;52.618;13.488;2022-11-03T07:00:01;31.73;;;29.63;;
13849;SDS011;6995;52.618;13.488;2022-11-03T07:02:52;31.50;;;28.90;;
13849;SDS011;6995;52.618;13.488;2022-11-03T07:05:25;32.17;;;29.67;;
13849;SDS011;6995;52.618;13.488;2022-11-03T07:07:53;28.80;;;26.73;;
13849;SDS011;6995;52.618;13.488;2022-11-03T07:10:26;29.67;;;27.53;;
13849;SDS011;6995;52.618;13.488;2022-11-03T07:12:55;31.67;;;29.43;;
13849;SDS011;6995;52.618;13.488;2022-11-03T07:15:32;30.03;;;28.00;;
13849;SDS011;6995;52.618;13.488;2022-11-03T07:18:01;28.53;;;26.43;;
13849;SDS011;6995;52.618;13.488;2022-11-03T07:20:29;30.07;;;28.13;;
13849;SDS011;6995;52.618;13.488;2022-11-03T07:22:55;29.77;;;27.80;;
13849;SDS011;6995;52.618;13.488;2022-11-03T07:25:25;31.80;;;29.47;;
13849;SDS011;6995;52.618;13.488;2022-11-03T07:27:51;30.30;;;27.87;;
13849;SDS011;6995;52.618;13.488;2022-11-03T07:32:49;28.83;;;26.37;;
13849;SDS011;6995;52.618;13.488;2022-11-03T07:37:43;27.27;;;25.17;;
13849;SDS011;6995;52.618;13.488;2022-11-03T07:40:11;27.20;;;25.23;;
13849;SDS011;6995;52.618;13.488;2022-11-03T07:42:42;27.47;;;25.73;;
13849;SDS011;6995;52.618;13.488;2022-11-03T07:47:55;28.27;;;26.50;;
13849;SDS011;6995;52.618;13.488;2022-11-03T07:50:21;30.90;;;28.63;;
13849;SDS011;6995;52.618;13.488;2022-11-03T07:52:47;29.13;;;26.93;;
13849;SDS011;6995;52.618;13.488;2022-11-03T07:55:12;29.37;;;27.03;;
13849;SDS011;6995;52.618;13.488;2022-11-03T07:57:39;29.10;;;26.53;;
13849;SDS011;6995;52.618;13.488;2022-11-03T08:00:06;27.47;;;25.43;;
13849;SDS011;6995;52.618;13.488;2022-11-03T08:05:00;28.90;;;26.50;;
13849;SDS011;6995;52.618;13.488;2022-11-03T08:07:26;28.73;;;26.50;;
13849;SDS011;6995;52.618;13.488;2022-11-03T08:09:52;34.43;;;32.07;;
13849;SDS011;6995;52.618;13.488;2022-11-03T08:12:18;31.40;;;29.00;;
13849;SDS011;6995;52.618;13.488;2022-11-03T08:14:44;28.67;;;26.70;;
13849;SDS011;6995;52.618;13.488;2022-11-03T08:17:10;34.17;;;31.90;;
13849;SDS011;6995;52.618;13.488;2022-11-03T08:19:36;34.97;;;32.67;;
13849;SDS011;6995;52.618;13.488;2022-11-03T08:22:01;32.63;;;30.17;;
13849;SDS011;6995;52.618;13.488;2022-11-03T08:24:27;31.67;;;29.67;;
13849;SDS011;6995;52.618;13.488;2022-11-03T08:26:53;31.57;;;29.33;;
13849;SDS011;6995;52.618;13.488;2022-11-03T08:29:19;35.10;;;32.80;;
13849;SDS011;6995;52.618;13.488;2022-11-03T08:31:45;35.90;;;33.63;;
13849;SDS011;6995;52.618;13.488;2022-11-03T08:34:11;32.33;;;30.03;;
13849;SDS011;6995;52.618;13.488;2022-11-03T08:36:36;29.07;;;26.90;;
13849;SDS011;6995;52.618;13.488;2022-11-03T08:39:03;25.00;;;23.23;;
13849;SDS011;6995;52.618;13.488;2022-11-03T08:41:29;26.67;;;24.90;;
13849;SDS011;6995;52.618;13.488;2022-11-03T08:43:55;25.77;;;24.13;;
13849;SDS011;6995;52.618;13.488;2022-11-03T08:46:21;39.60;;;37.03;;
13849;SDS011;6995;52.618;13.488;2022-11-03T08:48:47;29.30;;;27.07;;
13849;SDS011;6995;52.618;13.488;2022-11-03T08:51:13;27.83;;;25.83;;
13849;SDS011;6995;52.618;13.488;2022-11-03T08:53:39;27.23;;;25.20;;
13849;SDS011;6995;52.618;13.488;2022-11-03T08:56:08;29.70;;;27.73;;
13849;SDS011;6995;52.618;13.488;2022-11-03T08:58:35;26.47;;;24.37;;
13849;SDS011;6995;52.618;13.488;2022-11-03T09:01:01;24.70;;;22.83;;
13849;SDS011;6995;52.618;13.488;2022-11-03T09:03:26;26.30;;;24.73;;
13849;SDS011;6995;52.618;13.488;2022-11-03T09:05:52;32.03;;;29.73;;
13849;SDS011;6995;52.618;13.488;2022-11-03T09:08:17;25.80;;;24.20;;
13849;SDS011;6995;52.618;13.488;2022-11-03T09:10:43;24.03;;;22.43;;
13849;SDS011;6995;52.618;13.488;2022-11-03T09:13:09;24.87;;;23.07;;
13849;SDS011;6995;52.618;13.488;2022-11-03T09:15:35;24.17;;;22.50;;
13849;SDS011;6995;52.618;13.488;2022-11-03T09:18:01;25.30;;;23.37;;
13849;SDS011;6995;52.618;13.488;2022-11-03T09:20:27;22.90;;;21.00;;
13849;SDS011;6995;52.618;13.488;2022-11-03T09:22:52;24.50;;;22.60;;
13849;SDS011;6995;52.618;13.488;2022-11-03T09:25:18;29.23;;;27.17;;
13849;SDS011;6995;52.618;13.488;2022-11-03T09:27:44;28.90;;;26.50;;
13849;SDS011;6995;52.618;13.488;2022-11-03T09:30:10;32.43;;;30.43;;
13849;SDS011;6995;52.618;13.488;2022-11-03T09:32:36;30.30;;;28.33;;
13849;SDS011;6995;52.618;13.488;2022-11-03T09:35:03;32.00;;;29.80;;
13849;SDS011;6995;52.618;13.488;2022-11-03T09:37:29;28.77;;;26.87;;
13849;SDS011;6995;52.618;13.488;2022-11-03T09:39:55;25.77;;;23.97;;
13849;SDS011;6995;52.618;13.488;2022-11-03T09:42:21;25.17;;;23.30;;
13849;SDS011;6995;52.618;13.488;2022-11-03T09:44:47;26.53;;;24.37;;
13849;SDS011;6995;52.618;13.488;2022-11-03T09:47:18;24.60;;;22.90;;
13849;SDS011;6995;52.618;13.488;2022-11-03T09:49:48;25.87;;;24.07;;
13849;SDS011;6995;52.618;13.488;2022-11-03T09:52:17;26.87;;;24.77;;
13849;SDS011;6995;52.618;13.488;2022-11-03T09:54:46;26.10;;;24.23;;
13849;SDS011;6995;52.618;13.488;2022-11-03T09:57:12;26.17;;;24.47;;
13849;SDS011;6995;52.618;13.488;2022-11-03T09:59:41;25.67;;;23.87;;
13849;SDS011;6995;52.618;13.488;2022-11-03T10:02:19;23.40;;;22.00;;
13849;SDS011;6995;52.618;13.488;2022-11-03T10:04:57;24.47;;;22.83;;
13849;SDS011;6995;52.618;13.488;2022-11-03T10:07:27;27.07;;;25.13;;
13849;SDS011;6995;52.618;13.488;2022-11-03T10:09:55;28.83;;;26.17;;
13849;SDS011;6995;52.618;13.488;2022-11-03T10:12:24;33.33;;;30.50;;
13849;SDS011;6995;52.618;13.488;2022-11-03T10:14:52;31.77;;;29.77;;
13849;SDS011;6995;52.618;13.488;2022-11-03T10:17:20;28.77;;;27.00;;
13849;SDS011;6995;52.618;13.488;2022-11-03T10:19:50;24.60;;;23.00;;
13849;SDS011;6995;52.618;13.488;2022-11-03T10:22:17;28.67;;;26.77;;
13849;SDS011;6995;52.618;13.488;2022-11-03T10:24:44;25.53;;;24.10;;
13849;SDS011;6995;52.618;13.488;2022-11-03T10:27:20;27.30;;;25.60;;
13849;SDS011;6995;52.618;13.488;2022-11-03T10:30:07;28.40;;;26.30;;
13849;SDS011;6995;52.618;13.488;2022-11-03T10:32:36;28.57;;;26.83;;
13849;SDS011;6995;52.618;13.488;2022-11-03T10:35:08;26.77;;;25.07;;
13849;SDS011;6995;52.618;13.488;2022-11-03T10:38:17;22.43;;;20.93;;
13849;SDS011;6995;52.618;13.488;2022-11-03T10:41:40;22.97;;;21.67;;
13849;SDS011;6995;52.618;13.488;2022-11-03T10:46:35;23.63;;;21.53;;
13849;SDS011;6995;52.618;13.488;2022-11-03T10:49:15;23.87;;;22.37;;
13849;SDS011;6995;52.618;13.488;2022-11-03T10:51:43;22.17;;;20.70;;
13849;SDS011;6995;52.618;13.488;2022-11-03T10:54:13;25.67;;;24.07;;
13849;SDS011;6995;52.618;13.488;2022-11-03T10:56:41;21.80;;;20.27;;
13849;SDS011;6995;52.618;13.488;2022-11-03T10:59:09;21.50;;;19.67;;
13849;SDS011;6995;52.618;13.488;2022-11-03T11:01:45;21.67;;;19.87;;
13849;SDS011;6995;52.618;13.488;2022-11-03T11:04:15;23.63;;;22.13;;
13849;SDS011;6995;52.618;13.488;2022-11-03T11:06:42;20.17;;;18.87;;
13849;SDS011;6995;52.618;13.488;2022-11-03T11:09:09;20.67;;;19.13;;
13849;SDS011;6995;52.618;13.488;2022-11-03T11:11:38;20.70;;;19.13;;
13849;SDS011;6995;52.618;13.488;2022-11-03T11:14:19;21.90;;;20.43;;
13849;SDS011;6995;52.618;13.488;2022-11-03T11:16:49;20.77;;;19.30;;
13849;SDS011;6995;52.618;13.488;2022-11-03T11:19:14;19.87;;;18.47;;
13849;SDS011;6995;52.618;13.488;2022-11-03T11:24:09;22.27;;;20.63;;
13849;SDS011;6995;52.618;13.488;2022-11-03T11:26:36;21.53;;;20.30;;
13849;SDS011;6995;52.618;13.488;2022-11-03T11:31:41;19.77;;;18.67;;
13849;SDS011;6995;52.618;13.488;2022-11-03T11:36:34;22.40;;;20.83;;
13849;SDS011;6995;52.618;13.488;2022-11-03T11:39:01;23.07;;;21.47;;
13849;SDS011;6995;52.618;13.488;2022-11-03T11:47:18;22.83;;;21.13;;
13849;SDS011;6995;52.618;13.488;2022-11-03T11:49:45;21.27;;;19.63;;
13849;SDS011;6995;52.618;13.488;2022-11-03T11:52:11;24.40;;;22.20;;
13849;SDS011;6995;52.618;13.488;2022-11-03T11:54:36;23.37;;;21.70;;
13849;SDS011;6995;52.618;13.488;2022-11-03T11:57:16;21.00;;;19.43;;
13849;SDS011;6995;52.618;13.488;2022-11-03T11:59:47;23.47;;;22.07;;
13849;SDS011;6995;52.618;13.488;2022-11-03T12:02:23;21.67;;;20.23;;
13849;SDS011;6995;52.618;13.488;2022-11-03T12:04:56;22.90;;;21.25;;
13849;SDS011;6995;52.618;13.488;2022-11-03T12:07:31;22.53;;;21.13;;
13849;SDS011;6995;52.618;13.488;2022-11-03T12:10:07;22.60;;;21.10;;
13849;SDS011;6995;52.618;13.488;2022-11-03T12:12:39;21.23;;;19.53;;
13849;SDS011;6995;52.618;13.488;2022-11-03T12:15:05;22.00;;;20.50;;
13849;SDS011;6995;52.618;13.488;2022-11-03T12:17:31;23.50;;;21.97;;
13849;SDS011;6995;52.618;13.488;2022-11-03T12:19:57;22.23;;;20.77;;
13849;SDS011;6995;52.618;13.488;2022-11-03T12:29:50;21.13;;;19.60;;
13849;SDS011;6995;52.618;13.488;2022-11-03T12:32:16;23.80;;;22.13;;
13849;SDS011;6995;52.618;13.488;2022-11-03T12:34:42;22.37;;;20.77;;
13849;SDS011;6995;52.618;13.488;2022-11-03T12:37:08;22.23;;;20.83;;
13849;SDS011;6995;52.618;13.488;2022-11-03T12:39:34;20.67;;;19.33;;
13849;SDS011;6995;52.618;13.488;2022-11-03T12:42:00;24.37;;;22.87;;
13849;SDS011;6995;52.618;13.488;2022-11-03T12:44:26;24.00;;;22.43;;
13849;SDS011;6995;52.618;13.488;2022-11-03T12:46:53;23.73;;;22.33;;
13849;SDS011;6995;52.618;13.488;2022-11-03T12:49:18;25.43;;;23.20;;
13849;SDS011;6995;52.618;13.488;2022-11-03T12:51:44;25.00;;;23.37;;
13849;SDS011;6995;52.618;13.488;2022-11-03T12:54:10;24.13;;;22.83;;
13849;SDS011;6995;52.618;13.488;2022-11-03T12:56:35;25.07;;;23.47;;
13849;SDS011;6995;52.618;13.488;2022-11-03T12:59:01;23.20;;;21.77;;
13849;SDS011;6995;52.618;13.488;2022-11-03T13:01:27;24.30;;;22.45;;
13849;SDS011;6995;52.618;13.488;2022-11-03T13:03:52;20.93;;;19.70;;
13849;SDS011;6995;52.618;13.488;2022-11-03T13:06:18;21.37;;;20.00;;
13849;SDS011;6995;52.618;13.488;2022-11-03T13:08:43;20.83;;;19.37;;
13849;SDS011;6995;52.618;13.488;2022-11-03T13:11:10;26.43;;;24.47;;
13849;SDS011;6995;52.618;13.488;2022-11-03T13:13:54;23.63;;;22.03;;
13849;SDS011;6995;52.618;13.488;2022-11-03T13:16:20;21.50;;;20.27;;
13849;SDS011;6995;52.618;13.488;2022-11-03T13:18:46;23.07;;;21.57;;
13849;SDS011;6995;52.618;13.488;2022-11-03T13:21:12;21.60;;;19.73;;
13849;SDS011;6995;52.618;13.488;2022-11-03T13:23:38;25.67;;;23.87;;
13849;SDS011;6995;52.618;13.488;2022-11-03T13:26:04;25.10;;;23.53;;
13849;SDS011;6995;52.618;13.488;2022-11-03T13:28:30;22.17;;;20.80;;
13849;SDS011;6995;52.618;13.488;2022-11-03T13:30:55;25.43;;;23.83;;
13849;SDS011;6995;52.618;13.488;2022-11-03T13:33:21;22.13;;;20.73;;
13849;SDS011;6995;52.618;13.488;2022-11-03T13:35:47;26.00;;;24.17;;
13849;SDS011;6995;52.618;13.488;2022-11-03T13:38:13;25.47;;;23.73;;
13849;SDS011;6995;52.618;13.488;2022-11-03T13:40:38;23.00;;;21.40;;
13849;SDS011;6995;52.618;13.488;2022-11-03T13:43:04;26.87;;;24.77;;
13849;SDS011;6995;52.618;13.488;2022-11-03T13:45:30;26.10;;;24.40;;
13849;SDS011;6995;52.618;13.488;2022-11-03T13:47:55;22.87;;;21.40;;
13849;SDS011;6995;52.618;13.488;2022-11-03T13:50:21;27.83;;;25.93;;
13849;SDS011;6995;52.618;13.488;2022-11-03T13:52:48;25.97;;;24.43;;
13849;SDS011;6995;52.618;13.488;2022-11-03T13:55:14;24.27;;;22.87;;
13849;SDS011;6995;52.618;13.488;2022-11-03T13:57:39;23.77;;;22.10;;
13849;SDS011;6995;52.618;13.488;2022-11-03T14:00:06;24.93;;;23.17;;
13849;SDS011;6995;52.618;13.488;2022-11-03T14:02:36;24.10;;;21.87;;
13849;SDS011;6995;52.618;13.488;2022-11-03T14:05:01;22.90;;;21.57;;
13849;SDS011;6995;52.618;13.488;2022-11-03T14:07:27;23.13;;;21.53;;
13849;SDS011;6995;52.618;13.488;2022-11-03T14:09:53;24.93;;;23.20;;
13849;SDS011;6995;52.618;13.488;2022-11-03T14:12:18;24.40;;;22.83;;
13849;SDS011;6995;52.618;13.488;2022-11-03T14:14:57;23.67;;;22.03;;
13849;SDS011;6995;52.618;13.488;2022-11-03T14:17:23;23.30;;;21.70;;
13849;SDS011;6995;52.618;13.488;2022-11-03T14:19:49;23.70;;;22.07;;
13849;SDS011;6995;52.618;13.488;2022-11-03T14:22:15;23.03;;;21.40;;
13849;SDS011;6995;52.618;13.488;2022-11-03T14:24:41;25.47;;;23.87;;
13849;SDS011;6995;52.618;13.488;2022-11-03T14:27:07;24.87;;;23.07;;
13849;SDS011;6995;52.618;13.488;2022-11-03T14:29:33;24.17;;;22.40;;
13849;SDS011;6995;52.618;13.488;2022-11-03T14:31:59;23.47;;;21.87;;
13849;SDS011;6995;52.618;13.488;2022-11-03T14:34:25;24.70;;;22.63;;
13849;SDS011;6995;52.618;13.488;2022-11-03T14:36:51;25.10;;;23.40;;
13849;SDS011;6995;52.618;13.488;2022-11-03T14:39:16;25.57;;;23.60;;
13849;SDS011;6995;52.618;13.488;2022-11-03T14:41:42;21.67;;;20.17;;
13849;SDS011;6995;52.618;13.488;2022-11-03T14:44:26;23.87;;;22.10;;
13849;SDS011;6995;52.618;13.488;2022-11-03T14:46:52;25.20;;;23.43;;
13849;SDS011;6995;52.618;13.488;2022-11-03T14:49:18;23.13;;;21.67;;
13849;SDS011;6995;52.618;13.488;2022-11-03T14:51:44;23.17;;;21.50;;
13849;SDS011;6995;52.618;13.488;2022-11-03T14:54:10;22.83;;;21.50;;
13849;SDS011;6995;52.618;13.488;2022-11-03T14:56:37;22.07;;;20.60;;
13849;SDS011;6995;52.618;13.488;2022-11-03T14:59:03;25.03;;;23.53;;
13849;SDS011;6995;52.618;13.488;2022-11-03T15:01:29;26.40;;;25.00;;
13849;SDS011;6995;52.618;13.488;2022-11-03T15:03:55;24.03;;;22.47;;
13849;SDS011;6995;52.618;13.488;2022-11-03T15:06:20;25.17;;;23.53;;
13849;SDS011;6995;52.618;13.488;2022-11-03T15:08:46;23.53;;;22.13;;
13849;SDS011;6995;52.618;13.488;2022-11-03T15:11:12;29.33;;;27.30;;
13849;SDS011;6995;52.618;13.488;2022-11-03T15:13:37;26.13;;;24.57;;
13849;SDS011;6995;52.618;13.488;2022-11-03T15:16:04;25.13;;;23.53;;
13849;SDS011;6995;52.618;13.488;2022-11-03T15:18:30;24.50;;;22.67;;
13849;SDS011;6995;52.618;13.488;2022-11-03T15:20:56;26.67;;;24.97;;
13849;SDS011;6995;52.618;13.488;2022-11-03T15:23:21;27.60;;;25.60;;
13849;SDS011;6995;52.618;13.488;2022-11-03T15:25:47;25.60;;;23.73;;
13849;SDS011;6995;52.618;13.488;2022-11-03T15:28:13;24.03;;;22.20;;
13849;SDS011;6995;52.618;13.488;2022-11-03T15:30:39;22.95;;;21.35;;
13849;SDS011;6995;52.618;13.488;2022-11-03T15:33:05;22.90;;;21.33;;
13849;SDS011;6995;52.618;13.488;2022-11-03T15:35:31;25.00;;;23.33;;
13849;SDS011;6995;52.618;13.488;2022-11-03T15:37:57;25.33;;;23.37;;
13849;SDS011;6995;52.618;13.488;2022-11-03T15:40:23;24.47;;;22.73;;
13849;SDS011;6995;52.618;13.488;2022-11-03T15:42:49;27.70;;;25.90;;
13849;SDS011;6995;52.618;13.488;2022-11-03T15:45:15;25.93;;;24.13;;
13849;SDS011;6995;52.618;13.488;2022-11-03T15:47:41;25.10;;;23.50;;
13849;SDS011;6995;52.618;13.488;2022-11-03T15:50:07;27.57;;;25.70;;